sensor_id;sensor_type;location;lat;lon;timestamp;P1;durP1;ratioP1;P2;durP2;ratioP2
25717;SDS011;13574;52.040;5.692;2022-11-15T00:00:28;48.50;;;21.52;;
25717;SDS011;13574;52.040;5.692;2022-11-15T00:02:53;48.08;;;21.48;;
25717;SDS011;13574;52.040;5.692;2022-11-15T00:05:20;50.28;;;22.55;;
25717;SDS011;13574;52.040;5.692;2022-11-15T00:07:45;51.13;;;22.90;;
25717;SDS011;13574;52.040;5.692;2022-11-15T00:10:11;53.05;;;22.90;;
25717;SDS011;13574;52.040;5.692;2022-11-15T00:12:37;52.85;;;23.35;;
25717;SDS011;13574;52.040;5.692;2022-11-15T00:15:04;50.20;;;22.25;;
25717;SDS011;13574;52.040;5.692;2022-11-15T00:17:30;45.60;;;21.27;;
25717;SDS011;13574;52.040;5.692;2022-11-15T00:19:56;49.50;;;21.80;;
25717;SDS011;13574;52.040;5.692;2022-11-15T00:22:22;48.55;;;21.92;;
25717;SDS011;13574;52.040;5.692;2022-11-15T00:24:48;53.38;;;22.77;;
25717;SDS011;13574;52.040;5.692;2022-11-15T00:27:14;47.72;;;23.35;;
25717;SDS011;13574;52.040;5.692;2022-11-15T00:29:40;50.10;;;23.00;;
25717;SDS011;13574;52.040;5.692;2022-11-15T00:32:09;50.45;;;22.15;;
25717;SDS011;13574;52.040;5.692;2022-11-15T00:34:35;59.72;;;24.08;;
25717;SDS011;13574;52.040;5.692;2022-11-15T00:37:01;53.38;;;23.08;;
25717;SDS011;13574;52.040;5.692;2022-11-15T00:39:26;54.63;;;24.55;;
25717;SDS011;13574;52.040;5.692;2022-11-15T00:41:52;52.03;;;23.88;;
25717;SDS011;13574;52.040;5.692;2022-11-15T00:44:18;51.70;;;23.40;;
25717;SDS011;13574;52.040;5.692;2022-11-15T00:46:44;48.13;;;22.05;;
25717;SDS011;13574;52.040;5.692;2022-11-15T00:49:09;55.40;;;24.23;;
25717;SDS011;13574;52.040;5.692;2022-11-15T00:51:35;48.72;;;22.95;;
25717;SDS011;13574;52.040;5.692;2022-11-15T00:54:00;54.28;;;23.25;;
25717;SDS011;13574;52.040;5.692;2022-11-15T00:56:26;52.70;;;23.67;;
25717;SDS011;13574;52.040;5.692;2022-11-15T00:58:52;50.75;;;23.38;;
25717;SDS011;13574;52.040;5.692;2022-11-15T01:01:18;56.05;;;23.95;;
25717;SDS011;13574;52.040;5.692;2022-11-15T01:03:43;43.90;;;22.38;;
25717;SDS011;13574;52.040;5.692;2022-11-15T01:06:09;56.10;;;23.30;;
25717;SDS011;13574;52.040;5.692;2022-11-15T01:08:36;49.75;;;23.83;;
25717;SDS011;13574;52.040;5.692;2022-11-15T01:11:04;45.72;;;22.65;;
25717;SDS011;13574;52.040;5.692;2022-11-15T01:13:36;44.80;;;22.92;;
25717;SDS011;13574;52.040;5.692;2022-11-15T01:16:10;53.85;;;24.38;;
25717;SDS011;13574;52.040;5.692;2022-11-15T01:18:38;48.20;;;22.98;;
25717;SDS011;13574;52.040;5.692;2022-11-15T01:21:05;47.95;;;23.67;;
25717;SDS011;13574;52.040;5.692;2022-11-15T01:23:35;50.75;;;23.50;;
25717;SDS011;13574;52.040;5.692;2022-11-15T01:26:02;50.38;;;24.70;;
25717;SDS011;13574;52.040;5.692;2022-11-15T01:28:30;49.45;;;22.95;;
25717;SDS011;13574;52.040;5.692;2022-11-15T01:30:58;48.80;;;23.15;;
25717;SDS011;13574;52.040;5.692;2022-11-15T01:33:25;50.17;;;24.48;;
25717;SDS011;13574;52.040;5.692;2022-11-15T01:35:51;53.80;;;24.58;;
25717;SDS011;13574;52.040;5.692;2022-11-15T01:38:16;50.22;;;24.20;;
25717;SDS011;13574;52.040;5.692;2022-11-15T01:40:42;45.75;;;24.20;;
25717;SDS011;13574;52.040;5.692;2022-11-15T01:45:46;56.00;;;25.40;;
25717;SDS011;13574;52.040;5.692;2022-11-15T01:48:17;51.35;;;25.55;;
25717;SDS011;13574;52.040;5.692;2022-11-15T01:50:43;54.92;;;25.15;;
25717;SDS011;13574;52.040;5.692;2022-11-15T01:53:09;53.58;;;25.92;;
25717;SDS011;13574;52.040;5.692;2022-11-15T01:55:35;51.17;;;25.33;;
25717;SDS011;13574;52.040;5.692;2022-11-15T01:58:02;47.40;;;24.67;;
25717;SDS011;13574;52.040;5.692;2022-11-15T02:00:30;49.92;;;25.88;;
25717;SDS011;13574;52.040;5.692;2022-11-15T02:02:56;57.33;;;25.73;;
25717;SDS011;13574;52.040;5.692;2022-11-15T02:05:22;47.75;;;25.45;;
25717;SDS011;13574;52.040;5.692;2022-11-15T02:07:49;48.85;;;24.92;;
25717;SDS011;13574;52.040;5.692;2022-11-15T02:10:21;52.33;;;25.77;;
25717;SDS011;13574;52.040;5.692;2022-11-15T02:12:49;51.35;;;27.05;;
25717;SDS011;13574;52.040;5.692;2022-11-15T02:15:15;52.33;;;25.17;;
25717;SDS011;13574;52.040;5.692;2022-11-15T02:26:58;48.40;;;25.08;;
25717;SDS011;13574;52.040;5.692;2022-11-15T02:29:00;48.80;;;25.15;;
25717;SDS011;13574;52.040;5.692;2022-11-15T02:34:28;47.45;;;24.85;;
25717;SDS011;13574;52.040;5.692;2022-11-15T02:42:47;51.20;;;24.63;;
25717;SDS011;13574;52.040;5.692;2022-11-15T02:45:37;48.10;;;24.80;;
25717;SDS011;13574;52.040;5.692;2022-11-15T02:48:06;44.72;;;24.60;;
25717;SDS011;13574;52.040;5.692;2022-11-15T02:50:33;47.00;;;24.30;;
25717;SDS011;13574;52.040;5.692;2022-11-15T02:52:59;44.80;;;25.23;;
25717;SDS011;13574;52.040;5.692;2022-11-15T02:55:29;48.90;;;25.13;;
25717;SDS011;13574;52.040;5.692;2022-11-15T03:00:28;53.58;;;26.17;;
25717;SDS011;13574;52.040;5.692;2022-11-15T03:08:50;49.45;;;25.50;;
25717;SDS011;13574;52.040;5.692;2022-11-15T03:11:29;46.25;;;24.63;;
25717;SDS011;13574;52.040;5.692;2022-11-15T03:13:58;40.58;;;24.23;;
25717;SDS011;13574;52.040;5.692;2022-11-15T03:19:47;49.42;;;24.88;;
25717;SDS011;13574;52.040;5.692;2022-11-15T03:22:25;50.85;;;26.00;;
25717;SDS011;13574;52.040;5.692;2022-11-15T03:24:56;52.42;;;26.90;;
25717;SDS011;13574;52.040;5.692;2022-11-15T03:27:26;47.70;;;25.30;;
25717;SDS011;13574;52.040;5.692;2022-11-15T03:29:58;42.95;;;25.08;;
25717;SDS011;13574;52.040;5.692;2022-11-15T03:32:28;43.60;;;25.23;;
25717;SDS011;13574;52.040;5.692;2022-11-15T03:35:03;51.38;;;25.58;;
25717;SDS011;13574;52.040;5.692;2022-11-15T03:37:34;49.60;;;25.08;;
25717;SDS011;13574;52.040;5.692;2022-11-15T03:40:07;50.03;;;26.85;;
25717;SDS011;13574;52.040;5.692;2022-11-15T03:42:43;49.22;;;26.00;;
25717;SDS011;13574;52.040;5.692;2022-11-15T03:45:39;46.65;;;24.15;;
25717;SDS011;13574;52.040;5.692;2022-11-15T03:48:10;49.03;;;25.38;;
25717;SDS011;13574;52.040;5.692;2022-11-15T03:50:42;51.13;;;25.85;;
25717;SDS011;13574;52.040;5.692;2022-11-15T03:53:09;49.45;;;27.52;;
25717;SDS011;13574;52.040;5.692;2022-11-15T03:55:36;53.92;;;26.40;;
25717;SDS011;13574;52.040;5.692;2022-11-15T03:58:01;49.08;;;26.88;;
25717;SDS011;13574;52.040;5.692;2022-11-15T04:00:27;52.75;;;25.58;;
25717;SDS011;13574;52.040;5.692;2022-11-15T04:02:53;55.13;;;27.20;;
25717;SDS011;13574;52.040;5.692;2022-11-15T04:05:19;53.20;;;28.23;;
25717;SDS011;13574;52.040;5.692;2022-11-15T04:07:45;57.85;;;28.33;;
25717;SDS011;13574;52.040;5.692;2022-11-15T04:10:11;56.25;;;27.80;;
25717;SDS011;13574;52.040;5.692;2022-11-15T04:12:40;55.22;;;27.30;;
25717;SDS011;13574;52.040;5.692;2022-11-15T04:17:42;56.55;;;26.70;;
25717;SDS011;13574;52.040;5.692;2022-11-15T04:20:12;58.70;;;27.10;;
25717;SDS011;13574;52.040;5.692;2022-11-15T04:22:59;54.28;;;26.52;;
25717;SDS011;13574;52.040;5.692;2022-11-15T04:28:17;50.80;;;26.42;;
25717;SDS011;13574;52.040;5.692;2022-11-15T04:30:46;54.05;;;25.92;;
25717;SDS011;13574;52.040;5.692;2022-11-15T04:33:12;52.67;;;26.13;;
25717;SDS011;13574;52.040;5.692;2022-11-15T04:35:38;54.92;;;26.33;;
25717;SDS011;13574;52.040;5.692;2022-11-15T04:38:09;55.47;;;26.92;;
25717;SDS011;13574;52.040;5.692;2022-11-15T04:40:36;53.75;;;25.88;;
25717;SDS011;13574;52.040;5.692;2022-11-15T04:43:03;49.45;;;25.73;;
25717;SDS011;13574;52.040;5.692;2022-11-15T04:45:29;52.90;;;26.27;;
25717;SDS011;13574;52.040;5.692;2022-11-15T04:48:04;46.42;;;24.92;;
25717;SDS011;13574;52.040;5.692;2022-11-15T04:50:33;53.83;;;27.17;;
25717;SDS011;13574;52.040;5.692;2022-11-15T04:53:01;47.13;;;26.20;;
25717;SDS011;13574;52.040;5.692;2022-11-15T04:55:27;55.45;;;28.00;;
25717;SDS011;13574;52.040;5.692;2022-11-15T05:02:55;51.65;;;25.63;;
25717;SDS011;13574;52.040;5.692;2022-11-15T05:05:40;52.45;;;26.00;;
25717;SDS011;13574;52.040;5.692;2022-11-15T05:08:06;54.63;;;26.75;;
25717;SDS011;13574;52.040;5.692;2022-11-15T05:10:32;50.90;;;26.73;;
25717;SDS011;13574;52.040;5.692;2022-11-15T05:12:57;55.08;;;27.15;;
25717;SDS011;13574;52.040;5.692;2022-11-15T05:15:23;53.58;;;26.98;;
25717;SDS011;13574;52.040;5.692;2022-11-15T05:17:56;50.08;;;27.05;;
25717;SDS011;13574;52.040;5.692;2022-11-15T05:20:23;53.70;;;27.38;;
25717;SDS011;13574;52.040;5.692;2022-11-15T05:22:52;57.95;;;27.27;;
25717;SDS011;13574;52.040;5.692;2022-11-15T05:25:21;50.13;;;26.73;;
25717;SDS011;13574;52.040;5.692;2022-11-15T05:28:02;51.72;;;26.90;;
25717;SDS011;13574;52.040;5.692;2022-11-15T05:30:28;53.58;;;26.52;;
25717;SDS011;13574;52.040;5.692;2022-11-15T05:32:54;54.38;;;26.83;;
25717;SDS011;13574;52.040;5.692;2022-11-15T05:35:31;55.25;;;27.00;;
25717;SDS011;13574;52.040;5.692;2022-11-15T05:38:11;54.40;;;26.15;;
25717;SDS011;13574;52.040;5.692;2022-11-15T05:40:37;51.10;;;26.23;;
25717;SDS011;13574;52.040;5.692;2022-11-15T05:43:05;55.63;;;27.40;;
25717;SDS011;13574;52.040;5.692;2022-11-15T05:45:33;57.38;;;26.75;;
25717;SDS011;13574;52.040;5.692;2022-11-15T05:48:01;56.65;;;27.00;;
25717;SDS011;13574;52.040;5.692;2022-11-15T05:50:31;61.90;;;28.70;;
25717;SDS011;13574;52.040;5.692;2022-11-15T05:52:58;57.67;;;28.17;;
25717;SDS011;13574;52.040;5.692;2022-11-15T05:55:24;55.85;;;27.08;;
25717;SDS011;13574;52.040;5.692;2022-11-15T05:57:50;53.88;;;28.83;;
25717;SDS011;13574;52.040;5.692;2022-11-15T06:00:18;51.22;;;26.58;;
25717;SDS011;13574;52.040;5.692;2022-11-15T06:02:49;53.83;;;27.95;;
25717;SDS011;13574;52.040;5.692;2022-11-15T06:05:19;53.22;;;28.00;;
25717;SDS011;13574;52.040;5.692;2022-11-15T06:07:58;56.72;;;28.75;;
25717;SDS011;13574;52.040;5.692;2022-11-15T06:10:27;60.38;;;27.90;;
25717;SDS011;13574;52.040;5.692;2022-11-15T06:13:03;53.08;;;26.98;;
25717;SDS011;13574;52.040;5.692;2022-11-15T06:15:29;56.40;;;28.35;;
25717;SDS011;13574;52.040;5.692;2022-11-15T06:17:56;54.38;;;27.23;;
25717;SDS011;13574;52.040;5.692;2022-11-15T06:20:23;56.92;;;28.17;;
25717;SDS011;13574;52.040;5.692;2022-11-15T06:23:10;53.22;;;28.00;;
25717;SDS011;13574;52.040;5.692;2022-11-15T06:25:36;57.25;;;27.25;;
25717;SDS011;13574;52.040;5.692;2022-11-15T06:28:02;50.97;;;26.83;;
25717;SDS011;13574;52.040;5.692;2022-11-15T06:30:30;53.60;;;26.83;;
25717;SDS011;13574;52.040;5.692;2022-11-15T06:33:02;57.05;;;26.80;;
25717;SDS011;13574;52.040;5.692;2022-11-15T06:35:33;54.00;;;26.23;;
25717;SDS011;13574;52.040;5.692;2022-11-15T06:38:04;54.10;;;26.33;;
25717;SDS011;13574;52.040;5.692;2022-11-15T06:43:01;51.30;;;25.08;;
25717;SDS011;13574;52.040;5.692;2022-11-15T06:45:30;53.33;;;26.70;;
25717;SDS011;13574;52.040;5.692;2022-11-15T06:47:56;52.92;;;26.10;;
25717;SDS011;13574;52.040;5.692;2022-11-15T06:50:22;57.72;;;26.17;;
25717;SDS011;13574;52.040;5.692;2022-11-15T06:52:48;58.35;;;27.92;;
25717;SDS011;13574;52.040;5.692;2022-11-15T06:55:13;53.28;;;26.67;;
25717;SDS011;13574;52.040;5.692;2022-11-15T06:57:49;55.65;;;27.55;;
25717;SDS011;13574;52.040;5.692;2022-11-15T07:03:01;55.28;;;26.70;;
25717;SDS011;13574;52.040;5.692;2022-11-15T07:05:27;57.65;;;27.38;;
25717;SDS011;13574;52.040;5.692;2022-11-15T07:07:54;51.78;;;26.35;;
25717;SDS011;13574;52.040;5.692;2022-11-15T07:10:26;61.90;;;27.48;;
25717;SDS011;13574;52.040;5.692;2022-11-15T07:12:52;55.83;;;27.67;;
25717;SDS011;13574;52.040;5.692;2022-11-15T07:15:20;62.13;;;29.48;;
25717;SDS011;13574;52.040;5.692;2022-11-15T07:17:47;54.33;;;26.67;;
25717;SDS011;13574;52.040;5.692;2022-11-15T07:20:13;56.25;;;27.25;;
25717;SDS011;13574;52.040;5.692;2022-11-15T07:22:39;54.25;;;27.05;;
25717;SDS011;13574;52.040;5.692;2022-11-15T07:25:06;51.03;;;25.70;;
25717;SDS011;13574;52.040;5.692;2022-11-15T07:27:32;49.03;;;26.75;;
25717;SDS011;13574;52.040;5.692;2022-11-15T07:29:58;57.42;;;25.88;;
25717;SDS011;13574;52.040;5.692;2022-11-15T07:32:23;56.28;;;26.30;;
25717;SDS011;13574;52.040;5.692;2022-11-15T07:34:49;53.40;;;26.20;;
25717;SDS011;13574;52.040;5.692;2022-11-15T07:37:15;53.85;;;27.00;;
25717;SDS011;13574;52.040;5.692;2022-11-15T07:39:42;53.70;;;26.58;;
25717;SDS011;13574;52.040;5.692;2022-11-15T07:42:08;51.22;;;26.40;;
25717;SDS011;13574;52.040;5.692;2022-11-15T07:44:52;50.45;;;26.00;;
25717;SDS011;13574;52.040;5.692;2022-11-15T07:47:18;53.22;;;25.48;;
25717;SDS011;13574;52.040;5.692;2022-11-15T07:49:43;48.30;;;25.30;;
25717;SDS011;13574;52.040;5.692;2022-11-15T07:52:11;52.05;;;25.65;;
25717;SDS011;13574;52.040;5.692;2022-11-15T07:54:37;47.15;;;25.27;;
25717;SDS011;13574;52.040;5.692;2022-11-15T07:57:03;48.25;;;25.20;;
25717;SDS011;13574;52.040;5.692;2022-11-15T07:59:29;52.10;;;25.83;;
25717;SDS011;13574;52.040;5.692;2022-11-15T08:01:55;46.47;;;25.73;;
25717;SDS011;13574;52.040;5.692;2022-11-15T08:04:20;51.67;;;25.13;;
25717;SDS011;13574;52.040;5.692;2022-11-15T08:06:46;47.80;;;26.50;;
25717;SDS011;13574;52.040;5.692;2022-11-15T08:09:12;52.78;;;26.10;;
25717;SDS011;13574;52.040;5.692;2022-11-15T08:11:38;49.58;;;24.92;;
25717;SDS011;13574;52.040;5.692;2022-11-15T08:14:03;47.60;;;24.98;;
25717;SDS011;13574;52.040;5.692;2022-11-15T08:16:29;49.60;;;24.88;;
25717;SDS011;13574;52.040;5.692;2022-11-15T08:18:55;47.05;;;24.27;;
25717;SDS011;13574;52.040;5.692;2022-11-15T08:21:21;46.70;;;25.40;;
25717;SDS011;13574;52.040;5.692;2022-11-15T08:23:48;47.42;;;24.20;;
25717;SDS011;13574;52.040;5.692;2022-11-15T08:26:14;45.42;;;24.70;;
25717;SDS011;13574;52.040;5.692;2022-11-15T08:28:39;41.35;;;22.77;;
25717;SDS011;13574;52.040;5.692;2022-11-15T08:31:05;43.83;;;23.83;;
25717;SDS011;13574;52.040;5.692;2022-11-15T08:33:31;44.97;;;23.65;;
25717;SDS011;13574;52.040;5.692;2022-11-15T08:35:58;43.78;;;23.58;;
25717;SDS011;13574;52.040;5.692;2022-11-15T08:38:25;43.75;;;24.00;;
25717;SDS011;13574;52.040;5.692;2022-11-15T08:40:53;40.78;;;23.23;;
25717;SDS011;13574;52.040;5.692;2022-11-15T08:43:26;46.53;;;23.77;;
25717;SDS011;13574;52.040;5.692;2022-11-15T08:45:55;45.00;;;22.77;;
25717;SDS011;13574;52.040;5.692;2022-11-15T08:48:21;42.15;;;21.65;;
25717;SDS011;13574;52.040;5.692;2022-11-15T08:50:47;43.03;;;22.45;;
25717;SDS011;13574;52.040;5.692;2022-11-15T08:53:13;43.38;;;23.08;;
25717;SDS011;13574;52.040;5.692;2022-11-15T08:55:39;41.90;;;21.58;;
25717;SDS011;13574;52.040;5.692;2022-11-15T08:58:06;41.95;;;22.75;;
25717;SDS011;13574;52.040;5.692;2022-11-15T09:00:32;41.13;;;21.85;;
25717;SDS011;13574;52.040;5.692;2022-11-15T09:02:58;38.10;;;21.30;;
25717;SDS011;13574;52.040;5.692;2022-11-15T09:05:24;41.33;;;22.90;;
25717;SDS011;13574;52.040;5.692;2022-11-15T09:07:53;39.38;;;21.42;;
25717;SDS011;13574;52.040;5.692;2022-11-15T09:10:20;37.70;;;21.23;;
25717;SDS011;13574;52.040;5.692;2022-11-15T09:12:46;38.22;;;22.02;;
25717;SDS011;13574;52.040;5.692;2022-11-15T09:15:13;33.97;;;20.63;;
25717;SDS011;13574;52.040;5.692;2022-11-15T09:17:40;37.30;;;20.00;;
25717;SDS011;13574;52.040;5.692;2022-11-15T09:20:06;34.42;;;20.55;;
25717;SDS011;13574;52.040;5.692;2022-11-15T09:22:33;37.30;;;20.17;;
25717;SDS011;13574;52.040;5.692;2022-11-15T09:24:59;40.60;;;20.60;;
25717;SDS011;13574;52.040;5.692;2022-11-15T09:27:30;35.45;;;20.50;;
25717;SDS011;13574;52.040;5.692;2022-11-15T09:29:56;28.50;;;18.58;;
25717;SDS011;13574;52.040;5.692;2022-11-15T09:32:22;31.73;;;19.42;;
25717;SDS011;13574;52.040;5.692;2022-11-15T09:34:51;29.80;;;19.48;;
25717;SDS011;13574;52.040;5.692;2022-11-15T09:37:17;31.33;;;18.30;;
25717;SDS011;13574;52.040;5.692;2022-11-15T09:39:43;32.08;;;18.58;;
25717;SDS011;13574;52.040;5.692;2022-11-15T09:45:22;25.73;;;16.10;;
25717;SDS011;13574;52.040;5.692;2022-11-15T09:48:38;25.02;;;15.43;;
25717;SDS011;13574;52.040;5.692;2022-11-15T09:50:59;23.17;;;13.70;;
25717;SDS011;13574;52.040;5.692;2022-11-15T09:53:34;24.70;;;14.30;;
25717;SDS011;13574;52.040;5.692;2022-11-15T09:56:08;24.95;;;14.52;;
25717;SDS011;13574;52.040;5.692;2022-11-15T10:01:18;21.15;;;13.38;;
25717;SDS011;13574;52.040;5.692;2022-11-15T10:04:06;20.80;;;12.55;;
25717;SDS011;13574;52.040;5.692;2022-11-15T10:06:32;18.00;;;11.82;;
25717;SDS011;13574;52.040;5.692;2022-11-15T10:09:05;18.48;;;11.55;;
25717;SDS011;13574;52.040;5.692;2022-11-15T10:11:38;16.38;;;11.32;;
25717;SDS011;13574;52.040;5.692;2022-11-15T10:19:43;14.35;;;10.02;;
25717;SDS011;13574;52.040;5.692;2022-11-15T10:25:12;15.65;;;9.63;;
25717;SDS011;13574;52.040;5.692;2022-11-15T10:27:44;15.43;;;9.60;;
25717;SDS011;13574;52.040;5.692;2022-11-15T10:30:17;12.52;;;8.98;;
25717;SDS011;13574;52.040;5.692;2022-11-15T10:32:44;16.10;;;9.32;;
25717;SDS011;13574;52.040;5.692;2022-11-15T10:35:22;15.27;;;8.38;;
25717;SDS011;13574;52.040;5.692;2022-11-15T10:38:04;12.25;;;7.85;;
25717;SDS011;13574;52.040;5.692;2022-11-15T10:40:34;11.05;;;7.75;;
25717;SDS011;13574;52.040;5.692;2022-11-15T10:45:36;10.02;;;7.18;;
25717;SDS011;13574;52.040;5.692;2022-11-15T10:50:38;8.93;;;6.38;;
25717;SDS011;13574;52.040;5.692;2022-11-15T10:53:15;8.27;;;6.68;;
25717;SDS011;13574;52.040;5.692;2022-11-15T10:55:49;9.27;;;6.60;;
25717;SDS011;13574;52.040;5.692;2022-11-15T11:00:52;7.72;;;6.35;;
25717;SDS011;13574;52.040;5.692;2022-11-15T11:03:26;9.82;;;6.05;;
25717;SDS011;13574;52.040;5.692;2022-11-15T11:06:05;10.60;;;6.22;;
25717;SDS011;13574;52.040;5.692;2022-11-15T11:08:36;10.68;;;6.15;;
25717;SDS011;13574;52.040;5.692;2022-11-15T11:11:05;7.97;;;5.43;;
25717;SDS011;13574;52.040;5.692;2022-11-15T11:13:37;8.23;;;5.63;;
25717;SDS011;13574;52.040;5.692;2022-11-15T11:21:38;6.55;;;4.53;;
25717;SDS011;13574;52.040;5.692;2022-11-15T11:27:21;5.63;;;3.83;;
25717;SDS011;13574;52.040;5.692;2022-11-15T12:59:50;6.60;;;2.38;;
25717;SDS011;13574;52.040;5.692;2022-11-15T13:02:20;4.25;;;1.95;;
25717;SDS011;13574;52.040;5.692;2022-11-15T13:04:49;6.43;;;1.90;;
25717;SDS011;13574;52.040;5.692;2022-11-15T13:10:00;5.63;;;1.50;;
25717;SDS011;13574;52.040;5.692;2022-11-15T13:22:45;4.15;;;1.70;;
25717;SDS011;13574;52.040;5.692;2022-11-15T13:30:27;6.50;;;1.80;;
25717;SDS011;13574;52.040;5.692;2022-11-15T13:32:55;5.30;;;1.75;;
25717;SDS011;13574;52.040;5.692;2022-11-15T13:35:32;6.70;;;1.80;;
25717;SDS011;13574;52.040;5.692;2022-11-15T13:40:34;6.20;;;1.80;;
25717;SDS011;13574;52.040;5.692;2022-11-15T13:48:46;5.70;;;1.70;;
25717;SDS011;13574;52.040;5.692;2022-11-15T13:51:30;2.80;;;1.40;;
25717;SDS011;13574;52.040;5.692;2022-11-15T13:54:02;4.95;;;1.33;;
25717;SDS011;13574;52.040;5.692;2022-11-15T13:56:32;6.10;;;1.20;;
25717;SDS011;13574;52.040;5.692;2022-11-15T13:58:59;6.75;;;1.40;;
25717;SDS011;13574;52.040;5.692;2022-11-15T14:01:27;5.40;;;1.38;;
25717;SDS011;13574;52.040;5.692;2022-11-15T14:03:57;5.73;;;1.40;;
25717;SDS011;13574;52.040;5.692;2022-11-15T14:06:25;5.35;;;1.50;;
25717;SDS011;13574;52.040;5.692;2022-11-15T14:08:58;4.65;;;1.70;;
25717;SDS011;13574;52.040;5.692;2022-11-15T14:11:29;2.58;;;1.02;;
25717;SDS011;13574;52.040;5.692;2022-11-15T14:14:11;5.57;;;1.48;;
25717;SDS011;13574;52.040;5.692;2022-11-15T14:16:46;5.28;;;1.30;;
25717;SDS011;13574;52.040;5.692;2022-11-15T14:24:33;5.28;;;1.25;;
25717;SDS011;13574;52.040;5.692;2022-11-15T14:27:15;4.40;;;1.10;;
25717;SDS011;13574;52.040;5.692;2022-11-15T14:29:51;3.05;;;1.00;;
25717;SDS011;13574;52.040;5.692;2022-11-15T14:32:19;4.97;;;1.10;;
25717;SDS011;13574;52.040;5.692;2022-11-15T14:34:47;4.22;;;1.38;;
25717;SDS011;13574;52.040;5.692;2022-11-15T14:37:22;4.40;;;1.20;;
25717;SDS011;13574;52.040;5.692;2022-11-15T14:39:52;2.50;;;1.23;;
25717;SDS011;13574;52.040;5.692;2022-11-15T14:42:19;3.33;;;1.30;;
25717;SDS011;13574;52.040;5.692;2022-11-15T14:44:46;5.50;;;1.40;;
25717;SDS011;13574;52.040;5.692;2022-11-15T14:47:12;4.53;;;1.38;;
25717;SDS011;13574;52.040;5.692;2022-11-15T14:49:38;6.30;;;1.20;;
25717;SDS011;13574;52.040;5.692;2022-11-15T14:52:22;2.80;;;1.05;;
25717;SDS011;13574;52.040;5.692;2022-11-15T14:54:50;3.58;;;1.27;;
25717;SDS011;13574;52.040;5.692;2022-11-15T14:57:16;2.92;;;1.10;;
25717;SDS011;13574;52.040;5.692;2022-11-15T14:59:41;3.80;;;1.23;;
25717;SDS011;13574;52.040;5.692;2022-11-15T15:02:18;3.22;;;1.27;;
25717;SDS011;13574;52.040;5.692;2022-11-15T15:04:45;3.78;;;1.40;;
25717;SDS011;13574;52.040;5.692;2022-11-15T15:07:12;4.88;;;1.30;;
25717;SDS011;13574;52.040;5.692;2022-11-15T15:09:37;3.72;;;1.35;;
25717;SDS011;13574;52.040;5.692;2022-11-15T15:12:03;3.92;;;1.50;;
25717;SDS011;13574;52.040;5.692;2022-11-15T15:14:32;3.40;;;1.30;;
25717;SDS011;13574;52.040;5.692;2022-11-15T15:16:57;3.40;;;1.50;;
25717;SDS011;13574;52.040;5.692;2022-11-15T15:19:23;4.63;;;1.42;;
25717;SDS011;13574;52.040;5.692;2022-11-15T15:21:52;5.25;;;2.05;;
25717;SDS011;13574;52.040;5.692;2022-11-15T15:24:17;5.45;;;1.20;;
25717;SDS011;13574;52.040;5.692;2022-11-15T15:26:43;3.08;;;1.40;;
25717;SDS011;13574;52.040;5.692;2022-11-15T15:29:09;4.60;;;1.25;;
25717;SDS011;13574;52.040;5.692;2022-11-15T15:31:35;6.20;;;1.67;;
25717;SDS011;13574;52.040;5.692;2022-11-15T15:34:01;7.05;;;1.42;;
25717;SDS011;13574;52.040;5.692;2022-11-15T15:36:27;3.40;;;1.30;;
25717;SDS011;13574;52.040;5.692;2022-11-15T15:38:52;3.80;;;1.52;;
25717;SDS011;13574;52.040;5.692;2022-11-15T15:41:18;5.75;;;1.30;;
25717;SDS011;13574;52.040;5.692;2022-11-15T15:43:44;5.00;;;1.23;;
25717;SDS011;13574;52.040;5.692;2022-11-15T15:46:11;4.47;;;1.35;;
25717;SDS011;13574;52.040;5.692;2022-11-15T15:48:39;4.93;;;1.42;;
25717;SDS011;13574;52.040;5.692;2022-11-15T15:51:05;5.25;;;1.40;;
25717;SDS011;13574;52.040;5.692;2022-11-15T15:53:34;4.45;;;1.40;;
25717;SDS011;13574;52.040;5.692;2022-11-15T15:56:00;5.22;;;1.38;;
25717;SDS011;13574;52.040;5.692;2022-11-15T15:58:25;3.10;;;1.45;;
25717;SDS011;13574;52.040;5.692;2022-11-15T16:00:51;4.38;;;1.60;;
25717;SDS011;13574;52.040;5.692;2022-11-15T16:03:18;3.42;;;1.50;;
25717;SDS011;13574;52.040;5.692;2022-11-15T16:05:44;3.08;;;1.50;;
25717;SDS011;13574;52.040;5.692;2022-11-15T16:08:17;6.85;;;1.30;;
25717;SDS011;13574;52.040;5.692;2022-11-15T16:10:47;4.43;;;1.50;;
25717;SDS011;13574;52.040;5.692;2022-11-15T16:13:13;5.38;;;1.90;;
25717;SDS011;13574;52.040;5.692;2022-11-15T16:15:39;3.58;;;1.50;;
25717;SDS011;13574;52.040;5.692;2022-11-15T16:18:06;5.35;;;1.90;;
25717;SDS011;13574;52.040;5.692;2022-11-15T16:20:46;5.05;;;1.75;;
25717;SDS011;13574;52.040;5.692;2022-11-15T16:23:15;5.32;;;1.90;;
25717;SDS011;13574;52.040;5.692;2022-11-15T16:30:46;4.15;;;1.80;;
25717;SDS011;13574;52.040;5.692;2022-11-15T16:33:13;4.65;;;1.85;;
25717;SDS011;13574;52.040;5.692;2022-11-15T16:35:50;6.30;;;2.00;;
25717;SDS011;13574;52.040;5.692;2022-11-15T16:40:44;3.40;;;1.83;;
25717;SDS011;13574;52.040;5.692;2022-11-15T16:43:10;7.03;;;2.15;;
25717;SDS011;13574;52.040;5.692;2022-11-15T16:45:36;4.70;;;2.00;;
25717;SDS011;13574;52.040;5.692;2022-11-15T16:48:02;4.68;;;1.95;;
25717;SDS011;13574;52.040;5.692;2022-11-15T16:50:29;4.95;;;1.77;;
25717;SDS011;13574;52.040;5.692;2022-11-15T16:55:25;4.63;;;1.65;;
25717;SDS011;13574;52.040;5.692;2022-11-15T16:57:53;5.75;;;1.92;;
25717;SDS011;13574;52.040;5.692;2022-11-15T17:00:21;8.70;;;2.13;;
25717;SDS011;13574;52.040;5.692;2022-11-15T17:02:48;3.50;;;1.90;;
25717;SDS011;13574;52.040;5.692;2022-11-15T17:05:16;6.03;;;2.05;;
25717;SDS011;13574;52.040;5.692;2022-11-15T17:07:42;4.57;;;2.13;;
25717;SDS011;13574;52.040;5.692;2022-11-15T17:10:13;5.05;;;2.40;;
25717;SDS011;13574;52.040;5.692;2022-11-15T17:12:39;5.72;;;2.28;;
25717;SDS011;13574;52.040;5.692;2022-11-15T17:15:05;5.32;;;2.20;;
25717;SDS011;13574;52.040;5.692;2022-11-15T17:17:31;5.97;;;2.72;;
25717;SDS011;13574;52.040;5.692;2022-11-15T17:19:57;6.60;;;2.45;;
25717;SDS011;13574;52.040;5.692;2022-11-15T17:22:23;5.90;;;2.17;;
25717;SDS011;13574;52.040;5.692;2022-11-15T17:24:48;3.70;;;2.40;;
25717;SDS011;13574;52.040;5.692;2022-11-15T17:27:14;7.82;;;2.45;;
25717;SDS011;13574;52.040;5.692;2022-11-15T17:29:48;7.82;;;2.63;;
25717;SDS011;13574;52.040;5.692;2022-11-15T17:32:15;4.28;;;2.45;;
25717;SDS011;13574;52.040;5.692;2022-11-15T17:34:40;6.60;;;2.88;;
25717;SDS011;13574;52.040;5.692;2022-11-15T17:37:06;5.68;;;2.60;;
25717;SDS011;13574;52.040;5.692;2022-11-15T17:39:31;7.30;;;2.67;;
25717;SDS011;13574;52.040;5.692;2022-11-15T17:41:57;6.45;;;2.88;;
25717;SDS011;13574;52.040;5.692;2022-11-15T17:44:23;5.28;;;3.05;;
25717;SDS011;13574;52.040;5.692;2022-11-15T17:46:49;6.72;;;3.13;;
25717;SDS011;13574;52.040;5.692;2022-11-15T17:49:15;5.32;;;3.13;;
25717;SDS011;13574;52.040;5.692;2022-11-15T17:51:40;5.28;;;3.30;;
25717;SDS011;13574;52.040;5.692;2022-11-15T17:54:07;7.88;;;3.53;;
25717;SDS011;13574;52.040;5.692;2022-11-15T17:56:36;5.35;;;3.35;;
25717;SDS011;13574;52.040;5.692;2022-11-15T17:59:04;6.38;;;3.30;;
25717;SDS011;13574;52.040;5.692;2022-11-15T18:01:33;8.85;;;3.90;;
25717;SDS011;13574;52.040;5.692;2022-11-15T18:04:01;7.20;;;3.67;;
25717;SDS011;13574;52.040;5.692;2022-11-15T18:06:28;8.32;;;3.67;;
25717;SDS011;13574;52.040;5.692;2022-11-15T18:08:56;9.07;;;3.92;;